Time;durP1;ratioP1;P1;durP2;ratioP2;P2;SDS_P1;SDS_P2;PMS_P1;PMS_P2;Temp;Humidity;BMP_temperature;BMP_pressure;BME280_temperature;BME280_humidity;BME280_pressure;Samples;Min_cycle;Max_cycle;Signal;HPM_P1;HPM_P2
2022/07/26 00:01:54;;;;;;;;;;;20.50;99.90;;;;;;5074185;28;19909;-82
2022/07/26 00:04:19;;;;;;;;;;;20.60;99.90;;;;;;5074193;28;19908;-80
2022/07/26 00:06:45;;;;;;;;;;;20.50;99.90;;;;;;5056200;28;19958;-81
2022/07/26 00:09:10;;;;;;;;;;;20.50;99.90;;;;;;5074124;28;19915;-79
2022/07/26 00:11:36;;;;;;;;;;;20.40;99.90;;;;;;5055994;28;19908;-84
2022/07/26 00:14:03;;;;;;;;;;;20.40;99.90;;;;;;5073984;28;19908;-80
2022/07/26 00:16:29;;;;;;;;;;;20.20;99.90;;;;;;5074169;28;19958;-81
2022/07/26 00:18:54;;;;;;;;;;;20.40;99.90;;;;;;5074035;28;20346;-84
2022/07/26 00:21:20;;;;;;;;;;;20.40;99.90;;;;;;5073918;28;20261;-81
2022/07/26 00:23:46;;;;;;;;;;;20.40;99.90;;;;;;5073939;28;19908;-81
2022/07/26 00:26:11;;;;;;;;;;;20.40;99.90;;;;;;5073844;28;19909;-83
2022/07/26 00:28:37;;;;;;;;;;;20.40;99.90;;;;;;5074241;28;19944;-81
2022/07/26 00:31:03;;;;;;;;;;;20.50;99.90;;;;;;5073926;28;20384;-81
2022/07/26 00:33:29;;;;;;;;;;;20.30;99.90;;;;;;5073746;28;19912;-82
2022/07/26 00:35:54;;;;;;;;;;;20.30;99.90;;;;;;5073782;28;19912;-79
2022/07/26 00:38:20;;;;;;;;;;;20.40;99.90;;;;;;5074245;28;20257;-81
2022/07/26 00:40:45;;;;;;;;;;;20.50;99.90;;;;;;5073667;28;19908;-81
2022/07/26 00:43:11;;;;;;;;;;;20.50;99.90;;;;;;5072697;28;20053;-83
2022/07/26 00:45:36;;;;;;;;;;;20.50;99.90;;;;;;5073662;28;19908;-81
2022/07/26 00:48:02;;;;;;;;;;;20.40;99.90;;;;;;5073638;28;19941;-80
2022/07/26 00:50:28;;;;;;;;;;;20.40;99.90;;;;;;5073549;28;20285;-82
2022/07/26 00:52:54;;;;;;;;;;;20.40;99.90;;;;;;5073540;28;20120;-82
2022/07/26 00:55:19;;;;;;;;;;;20.40;99.90;;;;;;5073692;28;19908;-80
2022/07/26 00:57:45;;;;;;;;;;;20.30;99.90;;;;;;5073646;28;19912;-83
2022/07/26 01:00:13;;;;;;;;;;;20.30;99.90;;;;;;5073478;28;19908;-78
2022/07/26 01:02:38;;;;;;;;;;;20.40;99.90;;;;;;5072828;28;19912;-81
2022/07/26 01:05:04;;;;;;;;;;;20.40;99.90;;;;;;5055468;28;20430;-78
2022/07/26 01:07:30;;;;;;;;;;;20.40;99.90;;;;;;5073420;28;19948;-81
2022/07/26 01:09:56;;;;;;;;;;;20.40;99.90;;;;;;5073536;28;20065;-80
2022/07/26 01:12:21;;;;;;;;;;;20.50;99.90;;;;;;5073689;28;19931;-81
2022/07/26 01:14:47;;;;;;;;;;;20.50;99.90;;;;;;5073466;28;20000;-80
2022/07/26 01:17:13;;;;;;;;;;;20.50;99.90;;;;;;5073230;28;20285;-82
2022/07/26 01:19:39;;;;;;;;;;;20.40;99.90;;;;;;5073380;28;19963;-82
2022/07/26 01:22:04;;;;;;;;;;;20.20;99.90;;;;;;5073390;28;19952;-79
2022/07/26 01:24:30;;;;;;;;;;;20.20;99.90;;;;;;5055238;28;19932;-80
2022/07/26 01:26:55;;;;;;;;;;;20.30;99.90;;;;;;5073203;28;19932;-82
2022/07/26 01:29:22;;;;;;;;;;;20.40;99.90;;;;;;5073190;28;19995;-81
2022/07/26 01:31:47;;;;;;;;;;;20.50;99.90;;;;;;5073531;28;19959;-82
2022/07/26 01:34:13;;;;;;;;;;;20.30;99.90;;;;;;5073115;28;19909;-79
2022/07/26 01:36:39;;;;;;;;;;;20.30;99.90;;;;;;5073669;28;19913;-79
2022/07/26 01:39:04;;;;;;;;;;;20.40;99.90;;;;;;5073555;28;19920;-81
2022/07/26 01:41:30;;;;;;;;;;;20.40;99.90;;;;;;5072858;28;19924;-82
2022/07/26 01:43:55;;;;;;;;;;;20.40;99.90;;;;;;5073253;28;19958;-79
2022/07/26 01:46:21;;;;;;;;;;;20.20;99.90;;;;;;5073388;28;20452;-82
2022/07/26 01:48:47;;;;;;;;;;;20.20;99.90;;;;;;5072928;28;19916;-84
2022/07/26 01:51:12;;;;;;;;;;;20.00;99.90;;;;;;5072949;28;19915;-81
2022/07/26 01:53:38;;;;;;;;;;;20.00;99.90;;;;;;5072989;28;20003;-85
2022/07/26 01:56:04;;;;;;;;;;;19.90;99.90;;;;;;5075010;28;19955;-81
2022/07/26 01:58:29;;;;;;;;;;;19.90;99.90;;;;;;5076500;28;19912;-81
2022/07/26 02:00:55;;;;;;;;;;;20.00;99.90;;;;;;5076663;28;20310;-83
2022/07/26 02:03:20;;;;;;;;;;;20.00;99.90;;;;;;5076508;28;19945;-82
2022/07/26 02:05:46;;;;;;;;;;;19.90;99.90;;;;;;5076468;28;20005;-81
2022/07/26 02:08:12;;;;;;;;;;;20.00;99.90;;;;;;5076532;28;19908;-83
2022/07/26 02:13:21;;;;;;;;;;;20.00;99.90;;;;;;5076197;28;20435;-83
2022/07/26 02:15:47;;;;;;;;;;;20.00;99.90;;;;;;5076301;28;19936;-80
2022/07/26 02:18:13;;;;;;;;;;;19.90;99.90;;;;;;5076319;28;19918;-83
2022/07/26 02:20:38;;;;;;;;;;;20.00;99.90;;;;;;5076182;28;19919;-82
2022/07/26 02:23:04;;;;;;;;;;;19.90;99.90;;;;;;5076182;28;19954;-81
2022/07/26 02:25:29;;;;;;;;;;;19.90;99.90;;;;;;5058098;28;19947;-80
2022/07/26 02:27:55;;;;;;;;;;;19.90;99.90;;;;;;5076224;28;19935;-80
2022/07/26 02:30:21;;;;;;;;;;;19.90;99.90;;;;;;5076059;28;19999;-84
2022/07/26 02:32:47;;;;;;;;;;;19.90;99.90;;;;;;5076006;28;19955;-81
2022/07/26 02:35:13;;;;;;;;;;;19.90;99.90;;;;;;5075974;28;20347;-80
2022/07/26 02:37:41;;;;;;;;;;;20.00;99.90;;;;;;5076351;28;19999;-84
2022/07/26 02:40:07;;;;;;;;;;;19.90;99.90;;;;;;5075865;28;19914;-78
2022/07/26 02:42:33;;;;;;;;;;;19.80;99.90;;;;;;5075629;28;19970;-81
2022/07/26 02:44:59;;;;;;;;;;;19.90;99.90;;;;;;5076106;28;19995;-79
2022/07/26 02:47:24;;;;;;;;;;;19.90;99.90;;;;;;5075642;28;20383;-83
2022/07/26 02:49:50;;;;;;;;;;;19.90;99.90;;;;;;5075659;28;19954;-83
2022/07/26 02:52:16;;;;;;;;;;;20.00;99.90;;;;;;5075634;28;19908;-82
2022/07/26 02:54:41;;;;;;;;;;;20.10;99.90;;;;;;5075805;28;19915;-80
2022/07/26 02:57:07;;;;;;;;;;;20.00;99.90;;;;;;5075484;28;19954;-84
2022/07/26 02:59:32;;;;;;;;;;;20.00;99.90;;;;;;5075570;28;19917;-85
2022/07/26 03:01:58;;;;;;;;;;;20.00;99.90;;;;;;5075409;28;20003;-83
2022/07/26 03:04:24;;;;;;;;;;;20.00;99.90;;;;;;5075594;28;20374;-84
2022/07/26 03:06:49;;;;;;;;;;;20.00;99.90;;;;;;5074979;28;19916;-84
2022/07/26 03:09:15;;;;;;;;;;;19.80;99.90;;;;;;5075833;28;19998;-83
2022/07/26 03:11:41;;;;;;;;;;;19.80;99.90;;;;;;5075193;28;19958;-83
2022/07/26 03:14:06;;;;;;;;;;;19.90;99.90;;;;;;5075189;28;19909;-82
2022/07/26 03:16:32;;;;;;;;;;;19.80;99.90;;;;;;5075469;28;19908;-81
2022/07/26 03:18:59;;;;;;;;;;;19.70;99.90;;;;;;5075120;28;19919;-82
2022/07/26 03:21:24;;;;;;;;;;;19.80;99.90;;;;;;5057081;28;20300;-78
2022/07/26 03:23:50;;;;;;;;;;;19.60;99.90;;;;;;5074991;28;19909;-85
2022/07/26 03:26:15;;;;;;;;;;;19.60;99.90;;;;;;5074829;28;19915;-80
2022/07/26 03:28:43;;;;;;;;;;;19.50;99.90;;;;;;5056941;28;19913;-85
2022/07/26 03:31:09;;;;;;;;;;;19.50;99.90;;;;;;5074782;28;19916;-82
2022/07/26 03:33:35;;;;;;;;;;;19.60;99.90;;;;;;5074754;28;19909;-81
2022/07/26 03:36:00;;;;;;;;;;;19.70;99.90;;;;;;5056697;28;19931;-83
2022/07/26 03:38:26;;;;;;;;;;;19.60;99.90;;;;;;5074821;28;19919;-78
2022/07/26 03:40:51;;;;;;;;;;;19.70;99.90;;;;;;5074594;28;19909;-82
2022/07/26 03:43:18;;;;;;;;;;;19.80;99.90;;;;;;5074209;28;20410;-80
2022/07/26 03:45:43;;;;;;;;;;;19.60;99.90;;;;;;5074545;28;19953;-84
2022/07/26 03:48:09;;;;;;;;;;;19.60;99.90;;;;;;5074438;28;19999;-83
2022/07/26 03:50:35;;;;;;;;;;;19.60;99.90;;;;;;5074396;28;19916;-83
2022/07/26 03:53:01;;;;;;;;;;;19.50;99.90;;;;;;5074382;28;19916;-81
2022/07/26 03:58:10;;;;;;;;;;;19.70;99.90;;;;;;5074007;28;20284;-79
2022/07/26 04:00:36;;;;;;;;;;;19.60;99.90;;;;;;5074285;28;19909;-78
2022/07/26 04:03:02;;;;;;;;;;;19.60;99.90;;;;;;5074345;28;19908;-79
2022/07/26 04:05:27;;;;;;;;;;;19.70;99.90;;;;;;5074169;28;19908;-81
2022/07/26 04:07:53;;;;;;;;;;;19.60;99.90;;;;;;5074118;28;19909;-80
2022/07/26 04:10:19;;;;;;;;;;;19.50;99.90;;;;;;5074534;28;20007;-80
2022/07/26 04:12:44;;;;;;;;;;;19.50;99.90;;;;;;5074066;28;20279;-79
2022/07/26 04:15:10;;;;;;;;;;;19.30;99.90;;;;;;5074068;28;19995;-82
2022/07/26 04:17:37;;;;;;;;;;;19.10;99.90;;;;;;5073353;28;19928;-83
2022/07/26 04:20:02;;;;;;;;;;;18.80;99.90;;;;;;5073838;28;19957;-79
2022/07/26 04:22:28;;;;;;;;;;;18.70;99.90;;;;;;5073949;28;20316;-82
2022/07/26 04:24:54;;;;;;;;;;;18.80;99.90;;;;;;5073871;28;19916;-84
2022/07/26 04:27:19;;;;;;;;;;;18.80;99.90;;;;;;5073861;28;19957;-83
2022/07/26 04:29:45;;;;;;;;;;;18.90;99.90;;;;;;5073778;28;20470;-81
2022/07/26 04:32:10;;;;;;;;;;;18.80;99.90;;;;;;5073792;28;19915;-81
2022/07/26 04:34:36;;;;;;;;;;;18.80;99.90;;;;;;5073812;28;19908;-84
2022/07/26 04:37:01;;;;;;;;;;;18.80;99.90;;;;;;5073643;28;19916;-84
2022/07/26 04:39:27;;;;;;;;;;;19.10;99.90;;;;;;5074168;28;19945;-81
2022/07/26 04:41:52;;;;;;;;;;;19.20;99.90;;;;;;5073412;28;20426;-80
2022/07/26 04:44:18;;;;;;;;;;;19.40;99.90;;;;;;5073644;28;20007;-79
2022/07/26 04:46:44;;;;;;;;;;;19.50;99.90;;;;;;5073641;28;20383;-81
2022/07/26 04:49:09;;;;;;;;;;;19.40;99.90;;;;;;5073564;28;19908;-81
2022/07/26 04:51:35;;;;;;;;;;;19.30;99.90;;;;;;5074031;28;19999;-82
2022/07/26 04:54:00;;;;;;;;;;;19.30;99.90;;;;;;5055678;28;19908;-79
2022/07/26 04:56:26;;;;;;;;;;;19.40;99.90;;;;;;5073453;28;19915;-79
2022/07/26 04:58:51;;;;;;;;;;;19.50;99.90;;;;;;5073653;28;20326;-83
2022/07/26 05:01:17;;;;;;;;;;;19.50;99.90;;;;;;5073427;28;19916;-82
2022/07/26 05:03:43;;;;;;;;;;;19.60;99.90;;;;;;5073688;28;20307;-83
2022/07/26 05:06:08;;;;;;;;;;;19.30;99.90;;;;;;5074005;28;19943;-82
2022/07/26 05:08:34;;;;;;;;;;;19.30;99.90;;;;;;5073457;28;20269;-80
2022/07/26 05:10:59;;;;;;;;;;;19.30;99.90;;;;;;5073613;28;19908;-79
2022/07/26 05:13:25;;;;;;;;;;;19.30;99.90;;;;;;5055177;28;19913;-85
2022/07/26 05:15:51;;;;;;;;;;;19.40;99.90;;;;;;5073251;28;19912;-81
2022/07/26 05:18:16;;;;;;;;;;;19.50;99.90;;;;;;5073253;28;19912;-81
2022/07/26 05:20:42;;;;;;;;;;;19.60;99.90;;;;;;5073589;28;19932;-80
2022/07/26 05:23:07;;;;;;;;;;;19.70;99.90;;;;;;5073272;28;19909;-81
2022/07/26 05:25:33;;;;;;;;;;;19.80;99.90;;;;;;5073348;28;19909;-81
2022/07/26 05:28:00;;;;;;;;;;;19.90;99.90;;;;;;5073159;28;20380;-82
2022/07/26 05:30:26;;;;;;;;;;;20.10;99.90;;;;;;5076199;28;19916;-79
2022/07/26 05:32:51;;;;;;;;;;;20.10;99.90;;;;;;5077246;28;19913;-78
2022/07/26 05:35:17;;;;;;;;;;;20.00;99.90;;;;;;5059132;28;20392;-80
2022/07/26 05:37:42;;;;;;;;;;;19.90;99.90;;;;;;5077135;28;19920;-80
2022/07/26 05:40:09;;;;;;;;;;;19.90;99.90;;;;;;5076855;28;19958;-80
2022/07/26 05:42:35;;;;;;;;;;;20.00;99.90;;;;;;5076684;28;20011;-80
2022/07/26 05:45:00;;;;;;;;;;;20.00;99.90;;;;;;5076858;28;19958;-82
2022/07/26 05:47:26;;;;;;;;;;;20.00;99.90;;;;;;5076750;28;20347;-82
2022/07/26 05:49:51;;;;;;;;;;;20.10;99.90;;;;;;5076990;28;19954;-82
2022/07/26 05:52:17;;;;;;;;;;;20.20;99.90;;;;;;5076710;28;19951;-81
2022/07/26 05:54:43;;;;;;;;;;;20.20;99.90;;;;;;5077047;28;20432;-81
2022/07/26 05:57:08;;;;;;;;;;;20.10;99.90;;;;;;5076756;28;19961;-84
2022/07/26 05:59:34;;;;;;;;;;;20.20;99.90;;;;;;5076568;28;19948;-81
2022/07/26 06:01:59;;;;;;;;;;;20.20;99.90;;;;;;5076692;28;20266;-81
2022/07/26 06:04:26;;;;;;;;;;;20.20;99.90;;;;;;5076634;28;19916;-81
2022/07/26 06:06:51;;;;;;;;;;;20.20;99.90;;;;;;5076711;28;19913;-83
2022/07/26 06:09:17;;;;;;;;;;;20.30;99.90;;;;;;5076450;28;19919;-81
2022/07/26 06:11:43;;;;;;;;;;;20.20;99.90;;;;;;5076937;28;19909;-79
2022/07/26 06:14:08;;;;;;;;;;;20.20;99.90;;;;;;5076373;28;19919;-80
2022/07/26 06:16:34;;;;;;;;;;;20.10;99.90;;;;;;5076656;28;19915;-83
2022/07/26 06:19:00;;;;;;;;;;;20.20;99.90;;;;;;5076212;28;19918;-84
2022/07/26 06:21:25;;;;;;;;;;;20.30;99.90;;;;;;5076216;28;19932;-81
2022/07/26 06:23:51;;;;;;;;;;;20.50;99.90;;;;;;5076220;28;19916;-80
2022/07/26 06:26:16;;;;;;;;;;;20.40;99.90;;;;;;5058156;28;19909;-86
2022/07/26 06:28:42;;;;;;;;;;;20.60;99.90;;;;;;5076300;28;19955;-80
2022/07/26 06:31:08;;;;;;;;;;;20.60;99.90;;;;;;5076079;28;19913;-83
2022/07/26 06:33:34;;;;;;;;;;;20.70;99.90;;;;;;5076013;28;20254;-80
2022/07/26 06:35:59;;;;;;;;;;;20.60;99.90;;;;;;5076417;28;19908;-83
2022/07/26 06:38:25;;;;;;;;;;;20.40;99.90;;;;;;5076010;28;19921;-83
2022/07/26 06:40:50;;;;;;;;;;;20.20;99.90;;;;;;5074971;28;19915;-78
2022/07/26 06:43:16;;;;;;;;;;;20.30;99.90;;;;;;5075421;28;19920;-85
2022/07/26 06:45:42;;;;;;;;;;;20.40;99.90;;;;;;5075729;28;20369;-82
2022/07/26 06:48:07;;;;;;;;;;;20.50;99.90;;;;;;5076032;28;19909;-85
2022/07/26 06:50:33;;;;;;;;;;;20.70;99.90;;;;;;5075821;28;19912;-84
2022/07/26 06:52:58;;;;;;;;;;;20.80;99.90;;;;;;5075734;28;19912;-79
2022/07/26 06:55:24;;;;;;;;;;;21.00;99.90;;;;;;5075769;28;20330;-80
2022/07/26 06:57:49;;;;;;;;;;;21.20;99.90;;;;;;5075489;28;19912;-82
2022/07/26 07:00:15;;;;;;;;;;;21.50;99.90;;;;;;5075832;28;19963;-81
2022/07/26 07:02:41;;;;;;;;;;;21.60;99.90;;;;;;5075448;28;20277;-80
2022/07/26 07:05:07;;;;;;;;;;;21.90;99.90;;;;;;5075494;28;20452;-79
2022/07/26 07:07:34;;;;;;;;;;;21.90;99.90;;;;;;5075395;28;19908;-82
2022/07/26 07:09:59;;;;;;;;;;;21.90;99.90;;;;;;5075322;28;19955;-82
2022/07/26 07:12:25;;;;;;;;;;;22.00;99.90;;;;;;5076101;28;19915;-80
2022/07/26 07:14:50;;;;;;;;;;;22.20;99.90;;;;;;5075420;28;20377;-83
2022/07/26 07:17:19;;;;;;;;;;;22.40;99.90;;;;;;5075186;28;19916;-86
2022/07/26 07:19:45;;;;;;;;;;;22.70;99.90;;;;;;5075084;28;20452;-85
2022/07/26 07:22:10;;;;;;;;;;;22.80;99.90;;;;;;5075438;28;19991;-80
2022/07/26 07:24:36;;;;;;;;;;;23.00;99.90;;;;;;5075124;28;20003;-79
2022/07/26 07:27:02;;;;;;;;;;;23.30;99.90;;;;;;5074982;28;19970;-83
2022/07/26 07:29:28;;;;;;;;;;;23.40;99.90;;;;;;5074936;28;20365;-81
2022/07/26 07:31:54;;;;;;;;;;;23.40;99.90;;;;;;5075065;28;19909;-81
2022/07/26 07:34:21;;;;;;;;;;;23.60;99.90;;;;;;5056937;28;20341;-81
2022/07/26 07:36:47;;;;;;;;;;;23.70;99.90;;;;;;5074740;28;19958;-79
2022/07/26 07:39:13;;;;;;;;;;;23.80;99.90;;;;;;5074692;28;20315;-83
2022/07/26 07:41:39;;;;;;;;;;;23.90;99.60;;;;;;5074472;28;19916;-80
2022/07/26 07:44:05;;;;;;;;;;;23.80;99.80;;;;;;5074847;28;19908;-80
2022/07/26 07:46:31;;;;;;;;;;;24.00;97.80;;;;;;5074644;28;19915;-83
2022/07/26 07:48:58;;;;;;;;;;;23.70;98.30;;;;;;5074433;28;19958;-84
2022/07/26 07:51:24;;;;;;;;;;;23.50;99.40;;;;;;5074468;28;20300;-80
2022/07/26 07:53:49;;;;;;;;;;;23.20;99.20;;;;;;5074429;28;19908;-84
2022/07/26 07:56:15;;;;;;;;;;;23.10;99.50;;;;;;5074402;28;20281;-82
2022/07/26 07:58:41;;;;;;;;;;;23.10;99.90;;;;;;5074565;28;19913;-82
2022/07/26 08:01:06;;;;;;;;;;;23.10;99.70;;;;;;5074446;28;20434;-84
2022/07/26 08:03:32;;;;;;;;;;;22.90;99.90;;;;;;5074327;28;19908;-80
2022/07/26 08:05:57;;;;;;;;;;;23.00;99.90;;;;;;5074197;28;19909;-81
2022/07/26 08:08:23;;;;;;;;;;;23.00;99.90;;;;;;5074086;28;20049;-82
2022/07/26 08:10:49;;;;;;;;;;;23.20;99.40;;;;;;5074631;28;19947;-81
2022/07/26 08:13:15;;;;;;;;;;;23.50;97.70;;;;;;5074044;28;19909;-79
2022/07/26 08:15:40;;;;;;;;;;;23.60;97.10;;;;;;5074063;28;19909;-84
2022/07/26 08:18:06;;;;;;;;;;;23.70;96.60;;;;;;5074360;28;20464;-78
2022/07/26 08:20:31;;;;;;;;;;;23.90;94.60;;;;;;5073940;28;19916;-81
2022/07/26 08:22:57;;;;;;;;;;;24.20;93.80;;;;;;5073935;28;19947;-79
2022/07/26 08:25:23;;;;;;;;;;;24.60;91.20;;;;;;5073888;28;19916;-82
2022/07/26 08:27:48;;;;;;;;;;;24.80;90.30;;;;;;5073921;28;19970;-85
2022/07/26 08:30:14;;;;;;;;;;;25.20;90.40;;;;;;5073770;28;20360;-84
2022/07/26 08:32:39;;;;;;;;;;;25.70;83.80;;;;;;5074181;28;19915;-80
2022/07/26 08:35:05;;;;;;;;;;;26.30;81.40;;;;;;5073731;28;20391;-85
2022/07/26 08:37:31;;;;;;;;;;;27.70;76.10;;;;;;5073723;28;19944;-79
2022/07/26 08:39:56;;;;;;;;;;;28.50;71.80;;;;;;5073704;28;20379;-85
2022/07/26 08:42:22;;;;;;;;;;;29.00;70.20;;;;;;5073395;28;19920;-82
2022/07/26 08:44:48;;;;;;;;;;;28.30;66.30;;;;;;5073789;28;19951;-81
2022/07/26 08:47:16;;;;;;;;;;;28.00;67.70;;;;;;5073766;28;19913;-81
2022/07/26 08:49:42;;;;;;;;;;;27.50;68.60;;;;;;5073612;28;19915;-82
2022/07/26 08:52:09;;;;;;;;;;;27.70;68.70;;;;;;5073630;28;20344;-80
2022/07/26 08:54:34;;;;;;;;;;;27.90;69.00;;;;;;5073504;28;19908;-82
2022/07/26 08:57:00;;;;;;;;;;;27.90;68.10;;;;;;5073688;28;19915;-83
2022/07/26 08:59:26;;;;;;;;;;;27.20;68.50;;;;;;5073640;28;20007;-83
2022/07/26 09:01:59;;;;;;;;;;;26.80;70.50;;;;;;5073476;28;19915;-82
2022/07/26 09:04:30;;;;;;;;;;;26.90;71.60;;;;;;5076613;28;19915;-83
2022/07/26 09:07:01;;;;;;;;;;;27.30;70.90;;;;;;5062090;28;20381;-82
2022/07/26 09:09:26;;;;;;;;;;;27.60;70.00;;;;;;5080176;28;19909;-82
2022/07/26 09:11:52;;;;;;;;;;;27.40;70.20;;;;;;5080655;28;19909;-82
2022/07/26 09:14:18;;;;;;;;;;;27.20;69.80;;;;;;5080252;28;19916;-83
2022/07/26 09:16:57;;;;;;;;;;;26.90;70.30;;;;;;5080237;28;20376;-84
2022/07/26 09:19:23;;;;;;;;;;;26.30;70.70;;;;;;5079910;28;19962;-80
2022/07/26 09:21:49;;;;;;;;;;;25.80;71.20;;;;;;5079945;28;19912;-81
2022/07/26 09:24:30;;;;;;;;;;;25.30;73.30;;;;;;5079953;28;20365;-83
2022/07/26 09:26:56;;;;;;;;;;;25.70;74.30;;;;;;5079947;28;19909;-82
2022/07/26 09:29:22;;;;;;;;;;;26.10;74.40;;;;;;5079961;28;19915;-83
2022/07/26 09:31:47;;;;;;;;;;;26.50;73.70;;;;;;5079857;28;19908;-82
2022/07/26 09:34:22;;;;;;;;;;;26.60;72.90;;;;;;5079892;28;20311;-83
2022/07/26 09:36:51;;;;;;;;;;;26.50;72.70;;;;;;5080022;28;19916;-82
2022/07/26 09:39:17;;;;;;;;;;;26.80;72.80;;;;;;5079824;28;20001;-84
2022/07/26 09:41:43;;;;;;;;;;;27.10;71.00;;;;;;5061597;28;19920;-81
2022/07/26 09:44:19;;;;;;;;;;;27.20;70.90;;;;;;5079962;28;20319;-81
2022/07/26 09:46:51;;;;;;;;;;;27.30;71.40;;;;;;5080032;28;20276;-84
2022/07/26 09:49:18;;;;;;;;;;;29.10;69.00;;;;;;5079663;28;19914;-81
2022/07/26 09:51:46;;;;;;;;;;;29.00;67.00;;;;;;5078905;28;20445;-82
2022/07/26 09:54:29;;;;;;;;;;;28.30;67.00;;;;;;5079863;28;20273;-84
2022/07/26 09:56:55;;;;;;;;;;;27.80;68.00;;;;;;5061462;28;19915;-82
2022/07/26 09:59:21;;;;;;;;;;;27.50;68.00;;;;;;5079625;28;20364;-82
2022/07/26 10:01:48;;;;;;;;;;;27.10;68.90;;;;;;5079598;28;19908;-83
2022/07/26 10:04:14;;;;;;;;;;;27.20;69.20;;;;;;5079968;28;19908;-85
2022/07/26 10:06:40;;;;;;;;;;;27.20;69.20;;;;;;5061644;28;19920;-82
2022/07/26 10:09:06;;;;;;;;;;;27.30;69.90;;;;;;5079566;28;19999;-83
2022/07/26 10:11:43;;;;;;;;;;;27.40;69.70;;;;;;5080078;28;20396;-84
2022/07/26 10:14:27;;;;;;;;;;;27.50;69.30;;;;;;5079718;28;20329;-85
2022/07/26 10:16:53;;;;;;;;;;;27.50;68.10;;;;;;5075715;28;19999;-82
2022/07/26 10:19:38;;;;;;;;;;;27.20;67.20;;;;;;5076150;28;20011;-82
2022/07/26 10:22:22;;;;;;;;;;;27.30;67.90;;;;;;5076220;28;19959;-84
2022/07/26 10:24:48;;;;;;;;;;;27.60;68.10;;;;;;5076379;28;19995;-84
2022/07/26 10:27:40;;;;;;;;;;;27.70;68.30;;;;;;5076119;28;20007;-85
2022/07/26 10:30:15;;;;;;;;;;;28.10;68.30;;;;;;5072914;28;19908;-86
2022/07/26 10:32:42;;;;;;;;;;;28.40;67.30;;;;;;5076071;28;19915;-82
2022/07/26 10:35:43;;;;;;;;;;;28.30;66.50;;;;;;5075995;28;20376;-82
2022/07/26 10:38:21;;;;;;;;;;;28.40;65.80;;;;;;5026123;28;20036;-83
2022/07/26 10:40:55;;;;;;;;;;;29.50;64.70;;;;;;5076071;28;19915;-81
2022/07/26 10:43:21;;;;;;;;;;;29.70;64.00;;;;;;5075805;28;19921;-82
2022/07/26 10:45:46;;;;;;;;;;;30.20;62.70;;;;;;5076042;28;20289;-82
2022/07/26 10:48:21;;;;;;;;;;;30.70;61.90;;;;;;5075816;28;19931;-84
2022/07/26 10:50:48;;;;;;;;;;;31.70;59.50;;;;;;5075690;28;20369;-85
2022/07/26 10:53:22;;;;;;;;;;;31.80;57.80;;;;;;5075655;28;19908;-84
2022/07/26 10:55:51;;;;;;;;;;;33.20;58.10;;;;;;5076110;28;19915;-78
2022/07/26 10:58:17;;;;;;;;;;;33.90;54.80;;;;;;5075518;28;19958;-83
2022/07/26 11:00:53;;;;;;;;;;;33.50;55.00;;;;;;5075692;28;19908;-78
2022/07/26 11:03:19;;;;;;;;;;;35.00;54.40;;;;;;5075415;28;19948;-80
2022/07/26 11:05:44;;;;;;;;;;;35.10;53.10;;;;;;5075727;28;19936;-82
2022/07/26 11:08:10;;;;;;;;;;;34.70;52.90;;;;;;5075300;28;20280;-81
2022/07/26 11:10:35;;;;;;;;;;;33.20;52.80;;;;;;5075359;28;19913;-78
2022/07/26 11:13:04;;;;;;;;;;;31.60;54.40;;;;;;5075737;28;19932;-80
2022/07/26 11:15:30;;;;;;;;;;;30.90;55.30;;;;;;5075205;28;19912;-79
2022/07/26 11:18:11;;;;;;;;;;;30.50;56.00;;;;;;5075291;28;20276;-78
2022/07/26 11:20:37;;;;;;;;;;;30.40;56.20;;;;;;5075123;28;19909;-81
2022/07/26 11:23:02;;;;;;;;;;;30.30;56.00;;;;;;5075083;28;19908;-81
2022/07/26 11:25:28;;;;;;;;;;;30.00;56.30;;;;;;5074991;28;19908;-80
2022/07/26 11:28:03;;;;;;;;;;;30.50;55.70;;;;;;5074666;28;19909;-81
2022/07/26 11:30:29;;;;;;;;;;;32.60;54.70;;;;;;5074974;28;19996;-80
2022/07/26 11:32:57;;;;;;;;;;;34.30;51.70;;;;;;5074807;28;19908;-81
2022/07/26 11:35:25;;;;;;;;;;;32.90;52.00;;;;;;5074789;28;19908;-85
2022/07/26 11:37:51;;;;;;;;;;;31.00;54.00;;;;;;5074745;28;19912;-83
2022/07/26 11:40:16;;;;;;;;;;;30.30;55.30;;;;;;5074759;28;19915;-80
2022/07/26 11:42:42;;;;;;;;;;;30.10;55.50;;;;;;5074462;28;20003;-82
2022/07/26 11:45:08;;;;;;;;;;;30.10;55.60;;;;;;5074627;28;19947;-83
2022/07/26 11:47:34;;;;;;;;;;;29.60;56.10;;;;;;5074509;28;19956;-82
2022/07/26 11:50:06;;;;;;;;;;;29.70;56.00;;;;;;5075072;28;19932;-81
2022/07/26 11:52:31;;;;;;;;;;;30.30;55.40;;;;;;5074452;28;19908;-83
2022/07/26 11:54:57;;;;;;;;;;;30.50;55.50;;;;;;5074468;28;20003;-81
2022/07/26 11:57:26;;;;;;;;;;;31.60;54.30;;;;;;5074781;28;20015;-83
2022/07/26 11:59:52;;;;;;;;;;;33.40;52.00;;;;;;5074363;28;19916;-82
2022/07/26 12:02:19;;;;;;;;;;;32.60;52.00;;;;;;5074569;28;19909;-82
2022/07/26 12:04:44;;;;;;;;;;;31.80;52.90;;;;;;5074446;28;19915;-82
2022/07/26 12:07:17;;;;;;;;;;;30.60;53.00;;;;;;5074208;28;19908;-83
2022/07/26 12:09:50;;;;;;;;;;;30.50;54.10;;;;;;5074307;28;19909;-80
2022/07/26 12:12:20;;;;;;;;;;;30.60;53.50;;;;;;5074629;28;19917;-82
2022/07/26 12:14:54;;;;;;;;;;;30.80;53.50;;;;;;5074059;28;19912;-80
2022/07/26 12:17:20;;;;;;;;;;;31.20;53.40;;;;;;5073960;28;19978;-82
2022/07/26 12:19:45;;;;;;;;;;;31.90;52.90;;;;;;5074384;28;20061;-83
2022/07/26 12:22:15;;;;;;;;;;;33.70;51.60;;;;;;5073966;28;19908;-81
2022/07/26 12:24:45;;;;;;;;;;;36.90;49.70;;;;;;5073878;28;19914;-81
2022/07/26 12:27:12;;;;;;;;;;;39.70;45.10;;;;;;5074187;28;19909;-82
2022/07/26 12:29:39;;;;;;;;;;;40.70;43.40;;;;;;5074085;28;20355;-82
2022/07/26 12:32:07;;;;;;;;;;;41.50;41.70;;;;;;5073965;28;19915;-82
2022/07/26 12:34:33;;;;;;;;;;;41.60;41.10;;;;;;5055786;28;20269;-82
2022/07/26 12:37:06;;;;;;;;;;;40.30;41.40;;;;;;5073819;28;20335;-81
2022/07/26 12:39:32;;;;;;;;;;;37.00;42.90;;;;;;5072984;28;19912;-81
2022/07/26 12:41:57;;;;;;;;;;;35.40;45.00;;;;;;5073561;28;20363;-82
2022/07/26 12:44:23;;;;;;;;;;;34.90;45.80;;;;;;5073727;28;19963;-78
2022/07/26 12:46:48;;;;;;;;;;;35.70;44.30;;;;;;5073594;28;19970;-83
2022/07/26 12:49:14;;;;;;;;;;;38.40;44.10;;;;;;5073545;28;19962;-80
2022/07/26 12:51:40;;;;;;;;;;;39.80;41.10;;;;;;5073578;28;19915;-81
2022/07/26 12:54:05;;;;;;;;;;;39.00;41.40;;;;;;5055700;28;19969;-79
2022/07/26 12:56:31;;;;;;;;;;;37.30;42.40;;;;;;5075075;28;19915;-83
2022/07/26 12:59:00;;;;;;;;;;;35.30;43.60;;;;;;5075219;28;19912;-81
2022/07/26 13:01:26;;;;;;;;;;;34.20;45.30;;;;;;5075486;28;19909;-81
2022/07/26 13:03:51;;;;;;;;;;;33.70;45.80;;;;;;5075169;28;20002;-80
2022/07/26 13:06:17;;;;;;;;;;;33.80;45.90;;;;;;5075044;28;19947;-80
2022/07/26 13:08:43;;;;;;;;;;;35.50;45.00;;;;;;5075112;28;19909;-84
2022/07/26 13:11:08;;;;;;;;;;;35.80;43.70;;;;;;5074533;28;19909;-79
2022/07/26 13:13:34;;;;;;;;;;;34.90;44.70;;;;;;5074585;28;19909;-82
2022/07/26 13:16:01;;;;;;;;;;;34.20;45.40;;;;;;5055991;28;19915;-79
2022/07/26 13:18:27;;;;;;;;;;;33.70;45.50;;;;;;5055745;28;19912;-79
2022/07/26 13:20:52;;;;;;;;;;;34.10;46.00;;;;;;5073777;28;19953;-81
2022/07/26 13:23:19;;;;;;;;;;;35.00;45.10;;;;;;5074698;28;19915;-81
2022/07/26 13:25:44;;;;;;;;;;;36.20;43.90;;;;;;5073767;28;19908;-78
2022/07/26 13:28:10;;;;;;;;;;;36.10;43.50;;;;;;5073533;28;20331;-79
2022/07/26 13:30:37;;;;;;;;;;;36.80;43.40;;;;;;5073223;28;19908;-82
2022/07/26 13:33:03;;;;;;;;;;;38.30;42.30;;;;;;5073231;28;19934;-81
2022/07/26 13:35:28;;;;;;;;;;;38.50;40.80;;;;;;5054922;28;19916;-79
2022/07/26 13:37:54;;;;;;;;;;;38.30;41.30;;;;;;5073570;28;19912;-78
2022/07/26 13:40:20;;;;;;;;;;;37.00;42.00;;;;;;5073389;28;19908;-79
2022/07/26 13:42:48;;;;;;;;;;;35.40;42.60;;;;;;5072923;28;20289;-80
2022/07/26 13:45:14;;;;;;;;;;;34.90;43.70;;;;;;5073038;28;19995;-79
2022/07/26 13:47:39;;;;;;;;;;;33.80;44.10;;;;;;5072936;28;19952;-79
2022/07/26 13:50:05;;;;;;;;;;;33.10;44.80;;;;;;5073657;28;19914;-78
2022/07/26 13:52:31;;;;;;;;;;;33.00;45.10;;;;;;5077029;28;20007;-78
2022/07/26 13:54:56;;;;;;;;;;;32.30;45.70;;;;;;5076805;28;20341;-82
2022/07/26 13:57:22;;;;;;;;;;;32.20;46.10;;;;;;5076623;28;19909;-80
2022/07/26 13:59:47;;;;;;;;;;;32.50;46.40;;;;;;5076597;28;19948;-78
2022/07/26 14:02:13;;;;;;;;;;;32.90;46.10;;;;;;5076542;28;20385;-79
2022/07/26 14:04:39;;;;;;;;;;;32.90;46.00;;;;;;5076848;28;19975;-78
2022/07/26 14:07:05;;;;;;;;;;;32.30;46.50;;;;;;5076738;28;20441;-79
2022/07/26 14:09:30;;;;;;;;;;;32.60;46.60;;;;;;5076507;28;19957;-81
2022/07/26 14:11:56;;;;;;;;;;;33.70;46.00;;;;;;5076984;28;19916;-78
2022/07/26 14:14:22;;;;;;;;;;;34.40;45.50;;;;;;5076629;28;19912;-81
2022/07/26 14:16:47;;;;;;;;;;;35.40;44.60;;;;;;5058409;28;19916;-81
2022/07/26 14:19:13;;;;;;;;;;;35.90;44.00;;;;;;5076250;28;19916;-80